Time,TemperatureF,DewpointF,PressureIn,WindDirection,WindDirectionDegrees,WindSpeedMPH,WindSpeedGustMPH,Humidity,HourlyPrecipIn,Conditions,Clouds,dailyrainin,SoftwareType,DateUTC
2013-03-04 00:00:00,33.5,19.5,30.01,WNW,298,5.5,5.5,56,0.00,CLR,,0.00,WeatherDisplay:10.37,2013-03-04 05:00:00,
2013-03-04 00:05:00,33.5,19.0,30.01,SSW,209,0.0,0.0,55,0.00,CLR,,0.00,WeatherDisplay:10.37,2013-03-04 05:05:00,
2013-03-04 00:10:00,33.6,19.6,30.01,NW,304,5.7,5.7,56,0.00,CLR,,0.00,WeatherDisplay:10.37,2013-03-04 05:10:00,
2013-03-04 00:15:00,33.6,19.1,30.01,WNW,285,1.1,0.0,55,0.00,CLR,,0.00,WeatherDisplay:10.37,2013-03-04 05:15:00,
2013-03-04 00:20:00,33.9,22.2,30.01,WNW,285,0.0,0.0,62,0.00,CLR,,0.00,WeatherDisplay:10.37,2013-03-04 05:20:00,
2013-03-04 00:25:00,34.0,21.2,30.02,NW,316,1.1,1.1,59,0.00,CLR,,0.00,WeatherDisplay:10.37,2013-03-04 05:25:00,
2013-03-04 00:30:00,34.2,20.5,30.01,WNW,291,0.0,0.0,57,0.00,CLR,,0.00,WeatherDisplay:10.37,2013-03-04 05:30:00,
2013-03-04 00:35:00,34.3,21.4,30.02,West,278,1.1,0.0,59,0.00,CLR,,0.00,WeatherDisplay:10.37,2013-03-04 05:35:00,
2013-03-04 00:40:00,34.1,20.0,30.02,WNW,291,3.5,3.5,56,0.00,CLR,,0.00,WeatherDisplay:10.37,2013-03-04 05:40:00,
2013-03-04 00:45:00,33.8,20.2,30.02,West,281,6.2,6.2,57,0.00,CLR,,0.00,WeatherDisplay:10.37,2013-03-04 05:45:00,
2013-03-04 00:50:00,33.3,19.3,30.02,North,3,2.3,2.3,56,0.00,CLR,,0.00,WeatherDisplay:10.37,2013-03-04 05:50:00,
2013-03-04 00:55:00,33.1,19.1,30.02,North,350,5.8,5.8,56,0.00,CLR,,0.00,WeatherDisplay:10.37,2013-03-04 05:55:00,
2013-03-04 01:00:00,33.0,19.0,30.03,WNW,294,5.8,5.8,56,0.00,CLR,,0.00,WeatherDisplay:10.37,2013-03-04 06:00:00,
2013-03-04 01:05:00,33.0,19.4,30.03,NW,308,6.9,6.9,57,0.00,CLR,,0.00,WeatherDisplay:10.37,2013-03-04 06:05:00,
2013-03-04 01:10:00,33.0,19.0,30.03,WNW,285,2.4,2.4,56,0.00,CLR,,0.00,WeatherDisplay:10.37,2013-03-04 06:10:00,
2013-03-04 01:15:00,32.9,18.9,30.03,North,350,5.8,5.8,56,0.00,CLR,,0.00,WeatherDisplay:10.37,2013-03-04 06:15:00,
2013-03-04 01:20:00,32.7,18.7,30.04,WNW,289,5.8,5.8,56,0.00,CLR,,0.00,WeatherDisplay:10.37,2013-03-04 06:20:00,
2013-03-04 01:25:00,32.4,18.4,30.03,NE,49,4.6,4.6,56,0.00,CLR,,0.00,WeatherDisplay:10.37,2013-03-04 06:25:00,
2013-03-04 01:30:00,32.4,18.4,30.04,WNW,284,0.0,0.0,56,0.00,CLR,,0.00,WeatherDisplay:10.37,2013-03-04 06:30:00,
2013-03-04 01:35:00,32.4,19.3,30.04,West,264,0.0,0.0,58,0.00,CLR,,0.00,WeatherDisplay:10.37,2013-03-04 06:35:00,
2013-03-04 01:40:00,32.4,18.8,30.04,West,280,1.1,0.0,57,0.00,CLR,,0.00,WeatherDisplay:10.37,2013-03-04 06:40:00,
2013-03-04 01:45:00,32.4,18.8,30.05,WNW,289,1.0,1.0,57,0.00,CLR,,0.00,WeatherDisplay:10.37,2013-03-04 06:45:00,
2013-03-04 01:50:00,32.4,19.7,30.05,NNW,347,0.0,0.6,59,0.00,CLR,,0.00,WeatherDisplay:10.37,2013-03-04 06:50:00,
2013-03-04 01:55:00,32.8,20.4,30.05,West,268,2.3,0.0,60,0.00,CLR,,0.00,WeatherDisplay:10.37,2013-03-04 06:55:00,
2013-03-04 02:01:00,32.8,19.6,30.05,WNW,294,1.1,0.0,58,0.00,CLR,,0.00,WeatherDisplay:10.37,2013-03-04 07:01:00,
2013-03-04 02:06:00,32.7,19.1,30.05,WNW,294,0.0,0.0,57,0.00,CLR,,0.00,WeatherDisplay:10.37,2013-03-04 07:06:00,
2013-03-04 02:11:00,32.6,19.0,30.05,West,275,1.1,0.0,57,0.00,CLR,,0.00,WeatherDisplay:10.37,2013-03-04 07:11:00,
2013-03-04 02:16:00,32.3,18.8,30.05,NNW,340,0.0,0.2,57,0.00,CLR,,0.00,WeatherDisplay:10.37,2013-03-04 07:16:00,
2013-03-04 02:21:00,32.0,18.5,30.05,NW,308,2.3,0.0,57,0.00,CLR,,0.00,WeatherDisplay:10.37,2013-03-04 07:21:00,
2013-03-04 02:26:00,31.9,18.8,30.06,NW,308,0.0,0.0,58,0.00,CLR,,0.00,WeatherDisplay:10.37,2013-03-04 07:26:00,
2013-03-04 02:31:00,31.9,18.8,30.06,NW,308,0.0,0.0,58,0.00,CLR,,0.00,WeatherDisplay:10.37,2013-03-04 07:31:00,
2013-03-04 02:36:00,31.8,18.7,30.06,NW,308,0.0,0.0,58,0.00,CLR,,0.00,WeatherDisplay:10.37,2013-03-04 07:36:00,
2013-03-04 02:41:00,31.8,18.7,30.06,WNW,289,0.0,0.0,58,0.00,CLR,,0.00,WeatherDisplay:10.37,2013-03-04 07:41:00,
2013-03-04 02:46:00,31.8,18.7,30.06,NW,316,0.0,0.2,58,0.00,CLR,,0.00,WeatherDisplay:10.37,2013-03-04 07:46:00,
2013-03-04 02:51:00,31.8,18.3,30.06,NW,316,0.0,0.0,57,0.00,CLR,,0.00,WeatherDisplay:10.37,2013-03-04 07:51:00,
2013-03-04 02:56:00,31.6,18.5,30.06,NW,316,0.0,0.0,58,0.00,CLR,,0.00,WeatherDisplay:10.37,2013-03-04 07:56:00,
2013-03-04 03:01:00,31.5,18.4,30.06,NW,316,0.0,0.0,58,0.00,CLR,,0.00,WeatherDisplay:10.37,2013-03-04 08:01:00,
2013-03-04 03:06:00,31.4,18.3,30.06,NW,316,0.0,0.0,58,0.00,CLR,,0.00,WeatherDisplay:10.37,2013-03-04 08:06:00,
2013-03-04 03:11:00,31.4,18.7,30.06,NW,316,0.0,0.0,59,0.00,CLR,,0.00,WeatherDisplay:10.37,2013-03-04 08:11:00,
2013-03-04 03:16:00,31.4,18.7,30.06,NW,316,0.0,0.0,59,0.00,CLR,,0.00,WeatherDisplay:10.37,2013-03-04 08:16:00,
2013-03-04 03:21:00,31.4,18.7,30.06,NW,316,0.0,0.0,59,0.00,CLR,,0.00,WeatherDisplay:10.37,2013-03-04 08:21:00,
2013-03-04 03:27:00,31.3,18.2,30.06,NW,313,0.0,0.3,58,0.00,CLR,,0.00,WeatherDisplay:10.37,2013-03-04 08:27:00,
2013-03-04 03:32:00,31.2,18.5,30.06,NW,313,0.0,0.0,59,0.00,CLR,,0.00,WeatherDisplay:10.37,2013-03-04 08:32:00,
2013-03-04 03:37:00,31.2,18.1,30.06,NW,313,0.0,0.0,58,0.00,CLR,,0.00,WeatherDisplay:10.37,2013-03-04 08:37:00,
2013-03-04 03:42:00,31.3,18.6,30.07,NW,313,0.0,0.0,59,0.00,CLR,,0.00,WeatherDisplay:10.37,2013-03-04 08:42:00,
2013-03-04 03:47:00,31.3,18.2,30.07,NW,313,0.0,0.0,58,0.00,CLR,,0.00,WeatherDisplay:10.37,2013-03-04 08:47:00,
2013-03-04 03:52:00,31.3,18.6,30.07,NW,313,0.0,0.0,59,0.00,CLR,,0.00,WeatherDisplay:10.37,2013-03-04 08:52:00,
2013-03-04 03:57:00,31.3,18.6,30.08,NW,313,0.0,0.0,59,0.00,CLR,,0.00,WeatherDisplay:10.37,2013-03-04 08:57:00,
2013-03-04 04:02:00,31.2,18.9,30.08,NW,313,0.0,0.0,60,0.00,CLR,,0.00,WeatherDisplay:10.37,2013-03-04 09:02:00,
2013-03-04 04:07:00,31.1,18.4,30.08,NW,312,0.0,0.0,59,0.00,CLR,,0.00,WeatherDisplay:10.37,2013-03-04 09:07:00,
2013-03-04 04:12:00,30.9,18.2,30.08,NNW,343,1.1,1.1,59,0.00,CLR,,0.00,WeatherDisplay:10.37,2013-03-04 09:12:00,
2013-03-04 04:17:00,31.0,18.7,30.08,NNW,343,0.0,0.0,60,0.00,CLR,,0.00,WeatherDisplay:10.37,2013-03-04 09:17:00,
2013-03-04 04:22:00,31.1,18.4,30.08,NW,318,0.0,0.0,59,0.00,CLR,,0.00,WeatherDisplay:10.37,2013-03-04 09:22:00,
2013-03-04 04:27:00,31.2,18.1,30.08,WSW,253,0.0,0.0,58,0.00,CLR,,0.00,WeatherDisplay:10.37,2013-03-04 09:27:00,
2013-03-04 04:32:00,31.1,18.0,30.09,WSW,253,0.0,0.0,58,0.00,CLR,,0.00,WeatherDisplay:10.37,2013-03-04 09:32:00,
2013-03-04 04:37:00,31.0,17.9,30.08,WSW,253,0.0,0.0,58,0.00,CLR,,0.00,WeatherDisplay:10.37,2013-03-04 09:37:00,
2013-03-04 04:42:00,30.8,18.1,30.09,WSW,253,0.0,0.0,59,0.00,CLR,,0.00,WeatherDisplay:10.37,2013-03-04 09:42:00,
2013-03-04 04:47:00,30.9,18.6,30.09,WSW,253,0.0,0.0,60,0.00,CLR,,0.00,WeatherDisplay:10.37,2013-03-04 09:47:00,
2013-03-04 04:52:00,30.7,18.4,30.09,WSW,253,0.0,0.0,60,0.00,CLR,,0.00,WeatherDisplay:10.37,2013-03-04 09:52:00,
2013-03-04 04:57:00,30.6,18.3,30.10,WSW,253,0.0,0.0,60,0.00,CLR,,0.00,WeatherDisplay:10.37,2013-03-04 09:57:00,
2013-03-04 05:02:00,30.6,18.3,30.10,WSW,253,0.0,0.0,60,0.00,CLR,,0.00,WeatherDisplay:10.37,2013-03-04 10:02:00,
2013-03-04 05:07:00,30.5,18.6,30.10,WSW,253,0.0,0.0,61,0.00,CLR,,0.00,WeatherDisplay:10.37,2013-03-04 10:07:00,
2013-03-04 05:12:00,30.3,18.5,30.11,WSW,253,0.0,0.0,61,0.00,CLR,,0.00,WeatherDisplay:10.37,2013-03-04 10:12:00,
2013-03-04 05:17:00,30.2,18.4,30.11,WSW,253,0.0,0.0,61,0.00,CLR,,0.00,WeatherDisplay:10.37,2013-03-04 10:17:00,
2013-03-04 05:22:00,30.1,20.1,30.11,WSW,253,0.0,0.0,66,0.00,CLR,,0.00,WeatherDisplay:10.37,2013-03-04 10:22:00,
2013-03-04 05:27:00,30.2,21.2,30.11,WSW,253,0.0,0.0,69,0.00,CLR,,0.00,WeatherDisplay:10.37,2013-03-04 10:27:00,
2013-03-04 05:32:00,30.0,22.4,30.11,WSW,253,0.0,0.0,73,0.00,CLR,,0.00,WeatherDisplay:10.37,2013-03-04 10:32:00,
2013-03-04 05:37:00,29.6,21.3,30.11,WSW,253,0.0,0.0,71,0.00,CLR,,0.00,WeatherDisplay:10.37,2013-03-04 10:37:00,
2013-03-04 05:42:00,29.2,20.6,30.11,WSW,253,0.0,0.0,70,0.00,CLR,,0.00,WeatherDisplay:10.37,2013-03-04 10:42:00,
2013-03-04 05:47:00,29.0,19.8,30.11,WSW,253,0.0,0.0,68,0.00,CLR,,0.00,WeatherDisplay:10.37,2013-03-04 10:47:00,
2013-03-04 05:52:00,28.5,19.3,30.11,WSW,253,0.0,0.0,68,0.00,CLR,,0.00,WeatherDisplay:10.37,2013-03-04 10:52:00,
2013-03-04 05:57:00,28.0,18.8,30.11,WSW,253,0.0,0.0,68,0.00,CLR,,0.00,WeatherDisplay:10.37,2013-03-04 10:57:00,
2013-03-04 06:02:00,27.5,18.3,30.11,WSW,253,0.0,0.0,68,0.00,CLR,,0.00,WeatherDisplay:10.37,2013-03-04 11:02:00,
2013-03-04 06:07:00,27.5,19.3,30.11,WSW,253,0.0,0.0,71,0.00,CLR,,0.00,WeatherDisplay:10.37,2013-03-04 11:07:00,
2013-03-04 06:12:00,27.7,19.8,30.11,WSW,253,0.0,0.0,72,0.00,CLR,,0.00,WeatherDisplay:10.37,2013-03-04 11:12:00,
2013-03-04 06:17:00,27.8,19.6,30.11,WSW,253,0.0,0.0,71,0.00,CLR,,0.00,WeatherDisplay:10.37,2013-03-04 11:17:00,
2013-03-04 06:22:00,28.0,20.8,30.12,WSW,253,0.0,0.0,74,0.00,CLR,,0.00,WeatherDisplay:10.37,2013-03-04 11:22:00,
2013-03-04 06:27:00,27.9,20.0,30.12,WSW,253,0.0,0.0,72,0.00,CLR,,0.00,WeatherDisplay:10.37,2013-03-04 11:27:00,
2013-03-04 06:32:00,28.1,21.5,30.12,WSW,253,0.0,0.0,76,0.00,CLR,,0.00,WeatherDisplay:10.37,2013-03-04 11:32:00,
2013-03-04 06:37:00,27.8,20.6,30.12,WSW,253,0.0,0.0,74,0.00,CLR,,0.00,WeatherDisplay:10.37,2013-03-04 11:37:00,
2013-03-04 06:42:00,27.5,20.0,30.12,WSW,253,0.0,0.0,73,0.00,CLR,,0.00,WeatherDisplay:10.37,2013-03-04 11:42:00,
2013-03-04 06:47:00,27.3,20.1,30.12,WSW,253,0.0,0.0,74,0.00,CLR,,0.00,WeatherDisplay:10.37,2013-03-04 11:47:00,
2013-03-04 06:52:00,27.1,19.3,30.11,WSW,253,0.0,0.0,72,0.00,CLR,,0.00,WeatherDisplay:10.37,2013-03-04 11:52:00,
2013-03-04 06:57:00,27.1,19.9,30.12,WSW,253,0.0,0.0,74,0.00,CLR,,0.00,WeatherDisplay:10.37,2013-03-04 11:57:00,
2013-03-04 07:02:00,27.1,19.9,30.12,WSW,253,0.0,0.0,74,0.00,CLR,,0.00,WeatherDisplay:10.37,2013-03-04 12:02:00,
2013-03-04 07:07:00,27.1,19.6,30.12,WSW,253,0.0,0.0,73,0.00,CLR,,0.00,WeatherDisplay:10.37,2013-03-04 12:07:00,
2013-03-04 07:12:00,27.2,21.8,30.12,WSW,253,0.0,0.0,80,0.00,CLR,,0.00,WeatherDisplay:10.37,2013-03-04 12:12:00,
2013-03-04 07:17:00,27.1,20.8,30.12,WSW,253,0.0,0.0,77,0.00,CLR,,0.00,WeatherDisplay:10.37,2013-03-04 12:17:00,
2013-03-04 07:22:00,28.4,26.1,30.12,WSW,253,0.0,0.0,91,0.00,CLR,,0.00,WeatherDisplay:10.37,2013-03-04 12:22:00,
2013-03-04 07:27:00,30.3,29.3,30.12,WSW,253,0.0,0.0,96,0.00,CLR,,0.00,WeatherDisplay:10.37,2013-03-04 12:27:00,
2013-03-04 07:32:00,31.5,28.1,30.13,WSW,253,0.0,0.0,87,0.00,CLR,,0.00,WeatherDisplay:10.37,2013-03-04 12:32:00,
2013-03-04 07:37:00,31.4,25.9,30.13,WSW,241,1.1,0.0,80,0.00,CLR,,0.00,WeatherDisplay:10.37,2013-03-04 12:37:00,
2013-03-04 07:42:00,31.0,24.0,30.13,West,268,0.0,0.0,75,0.00,CLR,,0.00,WeatherDisplay:10.37,2013-03-04 12:42:00,
2013-03-04 07:47:00,30.5,22.5,30.13,West,268,0.0,0.0,72,0.00,CLR,,0.00,WeatherDisplay:10.37,2013-03-04 12:47:00,
2013-03-04 07:52:00,30.2,22.3,30.12,West,268,0.0,0.0,72,0.00,CLR,,0.00,WeatherDisplay:10.37,2013-03-04 12:52:00,
2013-03-04 07:57:00,30.0,22.4,30.12,West,268,0.0,0.0,73,0.00,CLR,,0.00,WeatherDisplay:10.37,2013-03-04 12:57:00,
2013-03-04 08:02:00,30.0,23.0,30.12,West,268,0.0,0.0,75,0.00,CLR,,0.00,WeatherDisplay:10.37,2013-03-04 13:02:00,
2013-03-04 08:07:00,30.6,25.5,30.12,West,268,0.0,0.0,81,0.00,CLR,,0.00,WeatherDisplay:10.37,2013-03-04 13:07:00,
2013-03-04 08:12:00,31.6,27.6,30.12,West,268,0.0,0.0,85,0.00,CLR,,0.00,WeatherDisplay:10.37,2013-03-04 13:12:00,
2013-03-04 08:17:00,32.1,24.7,30.13,WNW,289,0.0,0.0,74,0.00,CLR,,0.00,WeatherDisplay:10.37,2013-03-04 13:17:00,
2013-03-04 08:22:00,32.8,25.1,30.13,NNE,31,3.5,3.5,73,0.00,CLR,,0.00,WeatherDisplay:10.37,2013-03-04 13:22:00,
2013-03-04 08:27:00,33.5,23.7,30.13,NNW,332,5.8,5.8,67,0.00,CLR,,0.00,WeatherDisplay:10.37,2013-03-04 13:27:00,
2013-03-04 08:32:00,34.0,23.1,30.13,NNW,328,3.5,3.5,64,0.00,CLR,,0.00,WeatherDisplay:10.37,2013-03-04 13:32:00,
2013-03-04 08:37:00,34.5,23.2,30.13,WNW,301,5.8,5.8,63,0.00,CLR,,0.00,WeatherDisplay:10.37,2013-03-04 13:37:00,
2013-03-04 08:42:00,34.9,22.4,30.13,NW,305,1.5,2.1,60,0.00,CLR,,0.00,WeatherDisplay:10.37,2013-03-04 13:42:00,
2013-03-04 08:47:00,35.2,22.7,30.14,North,7,5.8,5.8,60,0.00,CLR,,0.00,WeatherDisplay:10.37,2013-03-04 13:47:00,
2013-03-04 08:52:00,35.7,22.4,30.14,WNW,298,0.0,0.0,58,0.00,CLR,,0.00,WeatherDisplay:10.37,2013-03-04 13:52:00,
2013-03-04 08:57:00,36.1,22.3,30.14,NW,309,3.5,3.5,57,0.00,CLR,,0.00,WeatherDisplay:10.37,2013-03-04 13:57:00,
2013-03-04 09:02:00,36.3,21.7,30.14,WNW,294,2.3,2.3,55,0.00,CLR,,0.00,WeatherDisplay:10.37,2013-03-04 14:02:00,
2013-03-04 09:07:00,36.4,21.8,30.14,North,360,3.5,0.0,55,0.00,CLR,,0.00,WeatherDisplay:10.37,2013-03-04 14:07:00,
2013-03-04 09:12:00,36.7,22.0,30.14,NW,322,5.8,5.8,55,0.00,CLR,,0.00,WeatherDisplay:10.37,2013-03-04 14:12:00,
2013-03-04 09:17:00,36.9,22.2,30.14,NW,308,6.9,6.9,55,0.00,CLR,,0.00,WeatherDisplay:10.37,2013-03-04 14:17:00,
2013-03-04 09:22:00,37.2,22.1,30.14,NNW,332,0.0,0.0,54,0.00,CLR,,0.00,WeatherDisplay:10.37,2013-03-04 14:22:00,
2013-03-04 09:28:00,37.6,21.5,30.14,NW,323,5.8,5.8,52,0.00,CLR,,0.00,WeatherDisplay:10.37,2013-03-04 14:28:00,
2013-03-04 09:33:00,37.9,21.4,30.14,WNW,291,6.9,6.9,51,0.00,CLR,,0.00,WeatherDisplay:10.37,2013-03-04 14:33:00,
2013-03-04 09:38:00,38.2,22.1,30.14,North,352,3.0,0.0,52,0.00,CLR,,0.00,WeatherDisplay:10.37,2013-03-04 14:38:00,
2013-03-04 09:43:00,38.4,21.4,30.14,WNW,301,6.9,6.9,50,0.00,CLR,,0.00,WeatherDisplay:10.37,2013-03-04 14:43:00,
2013-03-04 09:48:00,38.6,22.9,30.14,WNW,287,1.1,1.1,53,0.00,CLR,,0.00,WeatherDisplay:10.37,2013-03-04 14:48:00,
2013-03-04 09:53:00,39.2,21.6,30.14,NW,322,4.6,4.6,49,0.00,CLR,,0.00,WeatherDisplay:10.37,2013-03-04 14:53:00,
2013-03-04 09:58:00,39.8,22.2,30.14,WNW,288,0.0,0.0,49,0.00,CLR,,0.00,WeatherDisplay:10.37,2013-03-04 14:58:00,
2013-03-04 10:03:00,40.3,23.6,30.14,WNW,292,5.8,5.8,51,0.00,CLR,,0.00,WeatherDisplay:10.37,2013-03-04 15:03:00,
2013-03-04 10:08:00,40.9,25.1,30.14,WSW,248,5.8,5.8,53,0.00,CLR,,0.00,WeatherDisplay:10.37,2013-03-04 15:08:00,
2013-03-04 10:13:00,41.7,24.9,30.14,WNW,301,6.9,6.9,51,0.00,CLR,,0.00,WeatherDisplay:10.37,2013-03-04 15:13:00,
2013-03-04 10:18:00,41.3,22.6,30.14,NW,326,4.7,4.7,47,0.00,CLR,,0.00,WeatherDisplay:10.37,2013-03-04 15:18:00,
2013-03-04 10:23:00,41.2,23.0,30.14,West,263,1.1,0.0,48,0.00,CLR,,0.00,WeatherDisplay:10.37,2013-03-04 15:23:00,
2013-03-04 10:28:00,41.1,21.9,30.14,WNW,287,0.0,0.0,46,0.00,CLR,,0.00,WeatherDisplay:10.37,2013-03-04 15:28:00,
2013-03-04 10:33:00,41.0,21.3,30.14,NNW,346,3.5,3.5,45,0.00,CLR,,0.00,WeatherDisplay:10.37,2013-03-04 15:33:00,
2013-03-04 10:38:00,41.0,20.7,30.13,NNW,346,0.0,0.0,44,0.00,CLR,,0.00,WeatherDisplay:10.37,2013-03-04 15:38:00,
2013-03-04 10:43:00,41.2,21.4,30.14,NW,318,4.6,4.6,45,0.00,CLR,,0.00,WeatherDisplay:10.37,2013-03-04 15:43:00,
2013-03-04 10:48:00,41.9,23.1,30.13,WNW,288,5.8,5.8,47,0.00,CLR,,0.00,WeatherDisplay:10.37,2013-03-04 15:48:00,
2013-03-04 10:53:00,42.5,23.7,30.14,WNW,296,2.3,2.3,47,0.00,CLR,,0.00,WeatherDisplay:10.37,2013-03-04 15:53:00,
2013-03-04 10:58:00,43.1,23.2,30.14,WNW,284,3.7,3.7,45,0.00,CLR,,0.00,WeatherDisplay:10.37,2013-03-04 15:58:00,
2013-03-04 11:03:00,43.6,22.5,30.14,NNW,337,4.7,4.7,43,0.00,CLR,,0.00,WeatherDisplay:10.37,2013-03-04 16:03:00,
2013-03-04 11:08:00,43.8,23.3,30.13,WNW,288,2.4,2.4,44,0.00,CLR,,0.00,WeatherDisplay:10.37,2013-03-04 16:08:00,
2013-03-04 11:13:00,44.3,22.6,30.13,West,272,2.3,2.3,42,0.00,CLR,,0.00,WeatherDisplay:10.37,2013-03-04 16:13:00,
2013-03-04 11:18:00,45.0,22.7,30.13,WNW,301,1.1,0.0,41,0.00,CLR,,0.00,WeatherDisplay:10.37,2013-03-04 16:18:00,
2013-03-04 11:23:00,45.9,24.1,30.13,NW,304,4.6,4.6,42,0.00,CLR,,0.00,WeatherDisplay:10.37,2013-03-04 16:23:00,
2013-03-04 11:28:00,46.4,23.9,30.13,ESE,106,5.8,5.8,41,0.00,CLR,,0.00,WeatherDisplay:10.37,2013-03-04 16:28:00,
2013-03-04 11:33:00,47.2,24.7,30.13,South,172,0.0,0.2,41,0.00,CLR,,0.00,WeatherDisplay:10.37,2013-03-04 16:33:00,
2013-03-04 11:38:00,48.1,24.9,30.12,WSW,243,4.6,4.6,40,0.00,CLR,,0.00,WeatherDisplay:10.37,2013-03-04 16:38:00,
2013-03-04 11:43:00,49.0,25.1,30.12,SW,229,0.0,0.0,39,0.00,CLR,,0.00,WeatherDisplay:10.37,2013-03-04 16:43:00,
2013-03-04 11:48:00,49.8,25.8,30.11,SW,222,3.5,3.5,39,0.00,CLR,,0.00,WeatherDisplay:10.37,2013-03-04 16:48:00,
2013-03-04 11:53:00,50.5,24.5,30.11,South,178,0.0,0.0,36,0.00,CLR,,0.00,WeatherDisplay:10.37,2013-03-04 16:53:00,
2013-03-04 11:58:00,51.0,25.0,30.12,South,178,0.0,0.0,36,0.00,CLR,,0.00,WeatherDisplay:10.37,2013-03-04 16:58:00,
2013-03-04 12:03:00,52.0,27.1,30.12,SW,233,4.6,4.6,38,0.00,CLR,,0.00,WeatherDisplay:10.37,2013-03-04 17:03:00,
2013-03-04 12:08:00,53.0,26.0,30.12,SW,234,0.0,0.0,35,0.00,CLR,,0.00,WeatherDisplay:10.37,2013-03-04 17:08:00,
2013-03-04 12:13:00,53.7,26.7,30.11,SSW,205,5.2,5.2,35,0.00,CLR,,0.00,WeatherDisplay:10.37,2013-03-04 17:13:00,
2013-03-04 12:18:00,54.4,26.6,30.11,West,271,4.6,4.6,34,0.00,CLR,,0.00,WeatherDisplay:10.37,2013-03-04 17:18:00,
2013-03-04 12:23:00,54.6,25.3,30.11,West,271,3.5,3.5,32,0.00,CLR,,0.00,WeatherDisplay:10.37,2013-03-04 17:23:00,
2013-03-04 12:28:00,55.2,28.7,30.11,SSW,202,5.8,5.8,36,0.00,CLR,,0.00,WeatherDisplay:10.37,2013-03-04 17:28:00,
2013-03-04 12:33:00,55.8,27.1,30.11,East,82,3.5,3.5,33,0.00,CLR,,0.00,WeatherDisplay:10.37,2013-03-04 17:33:00,
2013-03-04 12:38:00,56.2,26.7,30.11,WNW,288,5.2,5.2,32,0.00,CLR,,0.00,WeatherDisplay:10.37,2013-03-04 17:38:00,
2013-03-04 12:43:00,56.6,27.0,30.10,SW,229,6.9,6.9,32,0.00,CLR,,0.00,WeatherDisplay:10.37,2013-03-04 17:43:00,
2013-03-04 12:48:00,56.9,26.5,30.10,WSW,250,7.1,7.1,31,0.00,CLR,,0.00,WeatherDisplay:10.37,2013-03-04 17:48:00,
2013-03-04 12:53:00,57.5,29.3,30.10,ESE,106,6.9,6.9,34,0.00,CLR,,0.00,WeatherDisplay:10.37,2013-03-04 17:53:00,
2013-03-04 12:58:00,58.2,28.5,30.09,WSW,237,4.8,4.8,32,0.00,CLR,,0.00,WeatherDisplay:10.37,2013-03-04 17:58:00,
2013-03-04 13:03:00,58.8,29.0,30.09,West,267,5.8,5.8,32,0.00,CLR,,0.00,WeatherDisplay:10.37,2013-03-04 18:03:00,
2013-03-04 13:08:00,58.3,27.0,30.08,South,176,5.8,5.8,30,0.00,CLR,,0.00,WeatherDisplay:10.37,2013-03-04 18:08:00,
2013-03-04 13:13:00,58.1,29.1,30.08,West,268,8.1,8.1,33,0.00,CLR,,0.00,WeatherDisplay:10.37,2013-03-04 18:13:00,
2013-03-04 13:18:00,58.2,28.5,30.08,WSW,241,4.6,4.6,32,0.00,CLR,,0.00,WeatherDisplay:10.37,2013-03-04 18:18:00,
2013-03-04 13:23:00,58.8,28.2,30.08,West,270,3.5,3.5,31,0.00,CLR,,0.00,WeatherDisplay:10.37,2013-03-04 18:23:00,
2013-03-04 13:28:00,58.4,25.4,30.07,SW,222,0.2,0.3,28,0.00,CLR,,0.00,WeatherDisplay:10.37,2013-03-04 18:28:00,
2013-03-04 13:29:00,58.5,26.3,30.07,WNW,288,5.8,5.8,29,0.00,CLR,,0.00,WeatherDisplay:10.37,2013-03-04 18:29:00,
2013-03-04 13:30:00,58.6,26.4,30.07,West,268,6.9,6.9,29,0.00,CLR,,0.00,WeatherDisplay:10.37,2013-03-04 18:30:00,
2013-03-04 13:35:00,58.6,25.6,30.07,South,191,0.0,0.0,28,0.00,CLR,,0.00,WeatherDisplay:10.37,2013-03-04 18:35:00,
2013-03-04 13:40:00,58.8,25.7,30.07,SSW,212,1.1,1.1,28,0.00,CLR,,0.00,WeatherDisplay:10.37,2013-03-04 18:40:00,
2013-03-04 13:45:00,59.0,24.1,30.06,WNW,296,2.3,2.3,26,0.00,CLR,,0.00,WeatherDisplay:10.37,2013-03-04 18:45:00,
2013-03-04 13:50:00,59.2,26.9,30.06,SE,137,3.5,3.5,29,0.00,CLR,,0.00,WeatherDisplay:10.37,2013-03-04 18:50:00,
2013-03-04 13:55:00,59.6,26.4,30.06,West,281,4.0,4.0,28,0.00,CLR,,0.00,WeatherDisplay:10.37,2013-03-04 18:55:00,
2013-03-04 14:00:00,60.2,26.9,30.06,South,176,4.6,4.6,28,0.00,CLR,,0.00,WeatherDisplay:10.37,2013-03-04 19:00:00,
2013-03-04 14:05:00,60.2,24.2,30.06,NW,326,1.1,0.0,25,0.00,CLR,,0.00,WeatherDisplay:10.37,2013-03-04 19:05:00,
2013-03-04 14:10:00,60.0,25.0,30.06,SSW,198,4.6,4.6,26,0.00,CLR,,0.00,WeatherDisplay:10.37,2013-03-04 19:10:00,
2013-03-04 14:15:00,60.2,27.8,30.06,SSW,209,6.9,6.9,29,0.00,CLR,,0.00,WeatherDisplay:10.37,2013-03-04 19:15:00,
2013-03-04 14:20:00,60.9,28.4,30.06,SE,136,4.6,4.6,29,0.00,CLR,,0.00,WeatherDisplay:10.37,2013-03-04 19:20:00,
2013-03-04 14:25:00,61.4,27.1,30.06,South,169,2.3,2.3,27,0.00,CLR,,0.00,WeatherDisplay:10.37,2013-03-04 19:25:00,
2013-03-04 14:30:00,61.5,26.3,30.06,SSW,212,0.0,0.0,26,0.00,CLR,,0.00,WeatherDisplay:10.37,2013-03-04 19:30:00,
2013-03-04 14:35:00,61.6,25.4,30.05,ESE,119,2.3,2.3,25,0.00,CLR,,0.00,WeatherDisplay:10.37,2013-03-04 19:35:00,
2013-03-04 14:40:00,61.2,23.1,30.05,SE,136,5.8,5.8,23,0.00,CLR,,0.00,WeatherDisplay:10.37,2013-03-04 19:40:00,
2013-03-04 14:45:00,60.8,27.5,30.05,SSE,155,5.8,5.8,28,0.00,CLR,,0.00,WeatherDisplay:10.37,2013-03-04 19:45:00,
2013-03-04 14:50:00,61.5,28.1,30.04,South,176,4.6,4.6,28,0.00,CLR,,0.00,WeatherDisplay:10.37,2013-03-04 19:50:00,
2013-03-04 14:55:00,61.8,25.6,30.04,SE,130,1.1,0.0,25,0.00,CLR,,0.00,WeatherDisplay:10.37,2013-03-04 19:55:00,
2013-03-04 15:00:00,61.9,25.7,30.04,ESE,102,3.5,3.5,25,0.00,CLR,,0.00,WeatherDisplay:10.37,2013-03-04 20:00:00,
2013-03-04 15:05:00,62.1,26.8,30.04,East,85,2.3,2.3,26,0.00,CLR,,0.00,WeatherDisplay:10.37,2013-03-04 20:05:00,
2013-03-04 15:10:00,62.1,26.8,30.04,SSE,155,3.5,3.5,26,0.00,CLR,,0.00,WeatherDisplay:10.37,2013-03-04 20:10:00,
2013-03-04 15:15:00,62.0,26.7,30.04,SSW,200,3.5,3.5,26,0.00,CLR,,0.00,WeatherDisplay:10.37,2013-03-04 20:15:00,
2013-03-04 15:20:00,62.1,28.6,30.04,ESE,117,4.6,4.6,28,0.00,CLR,,0.00,WeatherDisplay:10.37,2013-03-04 20:20:00,
2013-03-04 15:25:00,62.2,26.9,30.03,South,181,4.6,4.6,26,0.00,CLR,,0.00,WeatherDisplay:10.37,2013-03-04 20:25:00,
2013-03-04 15:30:00,62.2,26.9,30.03,SSE,161,3.5,3.5,26,0.00,CLR,,0.00,WeatherDisplay:10.37,2013-03-04 20:30:00,
2013-03-04 15:35:00,62.2,25.9,30.03,SSE,160,2.3,2.3,25,0.00,CLR,,0.00,WeatherDisplay:10.37,2013-03-04 20:35:00,
2013-03-04 15:40:00,62.1,27.7,30.03,West,280,3.5,3.5,27,0.00,CLR,,0.00,WeatherDisplay:10.37,2013-03-04 20:40:00,
2013-03-04 15:45:00,61.3,26.1,30.03,East,96,1.1,1.1,26,0.00,CLR,,0.00,WeatherDisplay:10.37,2013-03-04 20:45:00,
2013-03-04 15:50:00,60.1,26.0,30.03,West,261,5.0,5.0,27,0.00,CLR,,0.00,WeatherDisplay:10.37,2013-03-04 20:50:00,
2013-03-04 15:55:00,59.4,27.9,30.03,SSE,150,3.5,3.5,30,0.00,CLR,,0.00,WeatherDisplay:10.37,2013-03-04 20:55:00,
2013-03-04 16:00:00,59.6,28.9,30.03,ESE,102,1.1,1.1,31,0.00,CLR,,0.00,WeatherDisplay:10.37,2013-03-04 21:00:00,
2013-03-04 16:05:00,59.8,29.1,30.03,SW,216,5.8,5.8,31,0.00,CLR,,0.00,WeatherDisplay:10.37,2013-03-04 21:05:00,
2013-03-04 16:10:00,60.0,27.6,30.03,WSW,251,5.3,5.3,29,0.00,CLR,,0.00,WeatherDisplay:10.37,2013-03-04 21:10:00,
2013-03-04 16:15:00,60.1,27.7,30.03,NW,311,6.9,6.9,29,0.00,CLR,,0.00,WeatherDisplay:10.37,2013-03-04 21:15:00,
2013-03-04 16:20:00,60.1,26.0,30.03,WSW,257,5.5,5.5,27,0.00,CLR,,0.00,WeatherDisplay:10.37,2013-03-04 21:20:00,
2013-03-04 16:25:00,60.5,28.1,30.03,SE,138,1.1,1.1,29,0.00,CLR,,0.00,WeatherDisplay:10.37,2013-03-04 21:25:00,
2013-03-04 16:30:00,60.6,28.1,30.03,SSE,151,3.5,3.5,29,0.00,CLR,,0.00,WeatherDisplay:10.37,2013-03-04 21:30:00,
2013-03-04 16:35:00,60.8,27.5,30.03,SE,128,3.5,3.5,28,0.00,CLR,,0.00,WeatherDisplay:10.37,2013-03-04 21:35:00,
2013-03-04 16:40:00,60.7,29.1,30.03,South,181,5.8,5.8,30,0.00,CLR,,0.00,WeatherDisplay:10.37,2013-03-04 21:40:00,
2013-03-04 16:45:00,60.6,28.1,30.03,WSW,241,8.1,8.1,29,0.00,CLR,,0.00,WeatherDisplay:10.37,2013-03-04 21:45:00,
2013-03-04 16:50:00,60.4,28.0,30.03,ESE,112,5.8,5.8,29,0.00,CLR,,0.00,WeatherDisplay:10.37,2013-03-04 21:50:00,
2013-03-04 16:55:00,60.2,27.8,30.04,South,172,1.1,0.0,29,0.00,CLR,,0.00,WeatherDisplay:10.37,2013-03-04 21:55:00,
2013-03-04 17:00:00,60.0,29.2,30.04,SE,143,5.8,5.8,31,0.00,CLR,,0.00,WeatherDisplay:10.37,2013-03-04 22:00:00,
2013-03-04 17:05:00,60.0,30.0,30.04,SSW,198,3.5,3.5,32,0.00,CLR,,0.00,WeatherDisplay:10.37,2013-03-04 22:05:00,
2013-03-04 17:10:00,59.8,28.3,30.03,SE,127,3.5,3.5,30,0.00,CLR,,0.00,WeatherDisplay:10.37,2013-03-04 22:10:00,
2013-03-04 17:15:00,59.3,27.0,30.04,South,188,3.5,0.0,29,0.00,CLR,,0.00,WeatherDisplay:10.37,2013-03-04 22:15:00,
2013-03-04 17:20:00,58.8,27.4,30.04,South,185,2.3,2.3,30,0.00,CLR,,0.00,WeatherDisplay:10.37,2013-03-04 22:20:00,
2013-03-04 17:25:00,58.2,27.7,30.04,SSE,167,4.6,4.6,31,0.00,CLR,,0.00,WeatherDisplay:10.37,2013-03-04 22:25:00,
2013-03-04 17:31:00,57.9,26.6,30.04,SE,140,4.6,4.6,30,0.00,CLR,,0.00,WeatherDisplay:10.37,2013-03-04 22:31:00,
2013-03-04 17:36:00,57.4,26.2,30.04,East,92,0.0,0.0,30,0.00,CLR,,0.00,WeatherDisplay:10.37,2013-03-04 22:36:00,
2013-03-04 17:40:00,57.0,25.8,30.03,SE,131,0.0,0.0,30,0.00,CLR,,0.00,WeatherDisplay:10.37,2013-03-04 22:40:00,
2013-03-04 17:46:00,56.7,25.6,30.04,SSE,158,3.5,3.5,30,0.00,CLR,,0.00,WeatherDisplay:10.37,2013-03-04 22:46:00,
2013-03-04 17:51:00,56.3,25.2,30.04,SSE,158,0.0,0.0,30,0.00,CLR,,0.00,WeatherDisplay:10.37,2013-03-04 22:51:00,
2013-03-04 17:56:00,56.0,26.5,30.04,SSE,158,0.0,0.0,32,0.00,CLR,,0.00,WeatherDisplay:10.37,2013-03-04 22:56:00,
2013-03-04 18:01:00,55.8,24.8,30.04,SSE,158,0.0,0.0,30,0.00,CLR,,0.00,WeatherDisplay:10.37,2013-03-04 23:01:00,
2013-03-04 18:06:00,55.7,26.3,30.04,SSE,158,0.0,0.0,32,0.00,CLR,,0.00,WeatherDisplay:10.37,2013-03-04 23:06:00,
2013-03-04 18:11:00,55.5,25.3,30.04,SSE,158,0.0,0.0,31,0.00,CLR,,0.00,WeatherDisplay:10.37,2013-03-04 23:11:00,
2013-03-04 18:16:00,55.2,25.1,30.04,SSE,158,0.0,0.0,31,0.00,CLR,,0.00,WeatherDisplay:10.37,2013-03-04 23:16:00,
2013-03-04 18:21:00,55.0,25.6,30.04,SSE,158,0.0,0.0,32,0.00,CLR,,0.00,WeatherDisplay:10.37,2013-03-04 23:21:00,
2013-03-04 18:26:00,54.6,25.3,30.04,SSE,158,0.0,0.0,32,0.00,CLR,,0.00,WeatherDisplay:10.37,2013-03-04 23:26:00,
2013-03-04 18:31:00,54.4,25.1,30.05,SSE,158,0.0,0.0,32,0.00,CLR,,0.00,WeatherDisplay:10.37,2013-03-04 23:31:00,
2013-03-04 18:36:00,54.2,24.9,30.05,SSE,158,0.0,0.0,32,0.00,CLR,,0.00,WeatherDisplay:10.37,2013-03-04 23:36:00,
2013-03-04 18:41:00,54.1,25.6,30.05,SSE,158,0.0,0.0,33,0.00,CLR,,0.00,WeatherDisplay:10.37,2013-03-04 23:41:00,
2013-03-04 18:46:00,53.7,25.2,30.05,SSE,158,0.0,0.0,33,0.00,CLR,,0.00,WeatherDisplay:10.37,2013-03-04 23:46:00,
2013-03-04 18:51:00,53.1,25.4,30.05,SSE,158,0.0,0.0,34,0.00,CLR,,0.00,WeatherDisplay:10.37,2013-03-04 23:51:00,
2013-03-04 18:56:00,52.6,27.0,30.05,SSE,158,0.0,0.0,37,0.00,CLR,,0.00,WeatherDisplay:10.37,2013-03-04 23:56:00,
2013-03-04 19:01:00,52.2,26.7,30.05,SSE,158,0.0,0.0,37,0.00,CLR,,0.00,WeatherDisplay:10.37,2013-03-05 00:01:00,
2013-03-04 19:06:00,51.8,26.3,30.05,SSE,158,0.0,0.0,37,0.00,CLR,,0.00,WeatherDisplay:10.37,2013-03-05 00:06:00,
2013-03-04 19:11:00,51.1,26.3,30.05,SSE,158,0.0,0.0,38,0.00,CLR,,0.00,WeatherDisplay:10.37,2013-03-05 00:11:00,
2013-03-04 19:16:00,50.7,28.4,30.05,SSE,158,0.0,0.0,42,0.00,CLR,,0.00,WeatherDisplay:10.37,2013-03-05 00:16:00,
2013-03-04 19:21:00,50.4,28.1,30.05,SSE,158,0.0,0.0,42,0.00,CLR,,0.00,WeatherDisplay:10.37,2013-03-05 00:21:00,
2013-03-04 19:26:00,50.1,27.9,30.05,SSE,158,0.0,0.0,42,0.00,CLR,,0.00,WeatherDisplay:10.37,2013-03-05 00:26:00,
2013-03-04 19:31:00,49.8,28.2,30.05,SSE,158,0.0,0.0,43,0.00,CLR,,0.00,WeatherDisplay:10.37,2013-03-05 00:31:00,
2013-03-04 19:36:00,49.6,27.4,30.06,SSE,158,0.0,0.0,42,0.00,CLR,,0.00,WeatherDisplay:10.37,2013-03-05 00:36:00,
2013-03-04 19:41:00,49.4,28.4,30.06,SSE,158,0.0,0.0,44,0.00,CLR,,0.00,WeatherDisplay:10.37,2013-03-05 00:41:00,
2013-03-04 19:46:00,49.1,28.1,30.06,SSE,158,0.0,0.0,44,0.00,CLR,,0.00,WeatherDisplay:10.37,2013-03-05 00:46:00,
2013-03-04 19:52:00,48.7,27.7,30.06,SSE,158,0.0,0.0,44,0.00,CLR,,0.00,WeatherDisplay:10.37,2013-03-05 00:52:00,
2013-03-04 19:57:00,48.4,27.5,30.06,SSE,158,0.0,0.0,44,0.00,CLR,,0.00,WeatherDisplay:10.37,2013-03-05 00:57:00,
2013-03-04 20:02:00,48.1,27.7,30.06,SSE,158,0.0,0.0,45,0.00,CLR,,0.00,WeatherDisplay:10.37,2013-03-05 01:02:00,
2013-03-04 20:07:00,48.4,32.0,30.06,SSE,158,0.0,0.0,53,0.00,CLR,,0.00,WeatherDisplay:10.37,2013-03-05 01:07:00,
2013-03-04 20:12:00,49.6,34.5,30.06,SSE,158,0.0,0.0,56,0.00,CLR,,0.00,WeatherDisplay:10.37,2013-03-05 01:12:00,
2013-03-04 20:17:00,50.3,31.8,30.06,SSE,158,0.0,0.0,49,0.00,CLR,,0.00,WeatherDisplay:10.37,2013-03-05 01:17:00,
2013-03-04 20:22:00,49.9,30.5,30.05,SSE,158,0.0,0.0,47,0.00,CLR,,0.00,WeatherDisplay:10.37,2013-03-05 01:22:00,
2013-03-04 20:27:00,49.2,30.3,30.06,SSE,158,0.0,0.0,48,0.00,CLR,,0.00,WeatherDisplay:10.37,2013-03-05 01:27:00,
2013-03-04 20:32:00,48.7,29.4,30.06,SSE,158,0.0,0.0,47,0.00,CLR,,0.00,WeatherDisplay:10.37,2013-03-05 01:32:00,
2013-03-04 20:37:00,48.0,28.7,30.06,SSE,158,0.0,0.0,47,0.00,CLR,,0.00,WeatherDisplay:10.37,2013-03-05 01:37:00,
2013-03-04 20:42:00,47.5,28.8,30.06,SSE,158,0.0,0.0,48,0.00,CLR,,0.00,WeatherDisplay:10.37,2013-03-05 01:42:00,
2013-03-04 20:47:00,47.4,29.2,30.06,SSE,158,0.0,0.0,49,0.00,CLR,,0.00,WeatherDisplay:10.37,2013-03-05 01:47:00,
2013-03-04 20:52:00,47.2,29.0,30.05,SSE,158,0.0,0.0,49,0.00,CLR,,0.00,WeatherDisplay:10.37,2013-03-05 01:52:00,
2013-03-04 20:57:00,46.9,29.2,30.05,SSE,158,0.0,0.0,50,0.00,CLR,,0.00,WeatherDisplay:10.37,2013-03-05 01:57:00,
2013-03-04 21:02:00,46.7,29.0,30.05,SSE,158,0.0,0.0,50,0.00,CLR,,0.00,WeatherDisplay:10.37,2013-03-05 02:02:00,
2013-03-04 21:07:00,46.7,29.5,30.06,SSE,158,0.0,0.0,51,0.00,CLR,,0.00,WeatherDisplay:10.37,2013-03-05 02:07:00,
2013-03-04 21:12:00,46.6,29.9,30.06,SSE,158,0.0,0.0,52,0.00,CLR,,0.00,WeatherDisplay:10.37,2013-03-05 02:12:00,
2013-03-04 21:17:00,46.3,29.6,30.06,SSE,158,0.0,0.0,52,0.00,CLR,,0.00,WeatherDisplay:10.37,2013-03-05 02:17:00,
2013-03-04 21:22:00,46.1,29.9,30.06,SSE,158,0.0,0.0,53,0.00,CLR,,0.00,WeatherDisplay:10.37,2013-03-05 02:22:00,
2013-03-04 21:27:00,45.9,29.7,30.06,SSE,158,0.0,0.0,53,0.00,CLR,,0.00,WeatherDisplay:10.37,2013-03-05 02:27:00,
2013-03-04 21:32:00,45.7,30.0,30.06,SSE,158,0.0,0.0,54,0.00,CLR,,0.00,WeatherDisplay:10.37,2013-03-05 02:32:00,
2013-03-04 21:37:00,45.6,30.3,30.06,SSE,158,0.0,0.0,55,0.00,CLR,,0.00,WeatherDisplay:10.37,2013-03-05 02:37:00,
2013-03-04 21:42:00,45.5,29.8,30.06,SSE,158,0.0,0.0,54,0.00,CLR,,0.00,WeatherDisplay:10.37,2013-03-05 02:42:00,
2013-03-04 21:47:00,45.3,29.6,30.06,SSE,158,0.0,0.0,54,0.00,CLR,,0.00,WeatherDisplay:10.37,2013-03-05 02:47:00,
2013-03-04 21:52:00,45.2,30.0,30.06,SSE,158,0.0,0.0,55,0.00,CLR,,0.00,WeatherDisplay:10.37,2013-03-05 02:52:00,
2013-03-04 21:57:00,45.2,30.4,30.06,SSE,158,0.0,0.0,56,0.00,CLR,,0.00,WeatherDisplay:10.37,2013-03-05 02:57:00,
2013-03-04 22:02:00,45.2,30.4,30.06,SSE,158,0.0,0.0,56,0.00,CLR,,0.00,WeatherDisplay:10.37,2013-03-05 03:02:00,
2013-03-04 22:07:00,45.0,29.8,30.07,SSE,158,0.0,0.0,55,0.00,CLR,,0.00,WeatherDisplay:10.37,2013-03-05 03:07:00,
2013-03-04 22:12:00,44.8,30.0,30.07,SSE,158,0.0,0.0,56,0.00,CLR,,0.00,WeatherDisplay:10.37,2013-03-05 03:12:00,
2013-03-04 22:17:00,44.8,30.0,30.07,SSE,158,0.0,0.0,56,0.00,CLR,,0.00,WeatherDisplay:10.37,2013-03-05 03:17:00,
2013-03-04 22:22:00,44.7,29.5,30.07,SSE,158,0.0,0.0,55,0.00,CLR,,0.00,WeatherDisplay:10.37,2013-03-05 03:22:00,
2013-03-04 22:27:00,44.4,29.7,30.06,SSE,158,0.0,0.0,56,0.00,CLR,,0.00,WeatherDisplay:10.37,2013-03-05 03:27:00,
2013-03-04 22:32:00,44.3,30.0,30.07,SSE,158,0.0,0.0,57,0.00,CLR,,0.00,WeatherDisplay:10.37,2013-03-05 03:32:00,
2013-03-04 22:37:00,44.1,30.3,30.07,SSE,158,0.0,0.0,58,0.00,CLR,,0.00,WeatherDisplay:10.37,2013-03-05 03:37:00,
2013-03-04 22:42:00,44.0,30.2,30.06,SSE,158,0.0,0.0,58,0.00,CLR,,0.00,WeatherDisplay:10.37,2013-03-05 03:42:00,
2013-03-04 22:47:00,43.6,29.8,30.06,SSE,158,0.0,0.0,58,0.00,CLR,,0.00,WeatherDisplay:10.37,2013-03-05 03:47:00,
2013-03-04 22:52:00,43.5,29.7,30.06,SSE,158,0.0,0.0,58,0.00,CLR,,0.00,WeatherDisplay:10.37,2013-03-05 03:52:00,
2013-03-04 22:57:00,43.6,30.2,30.06,SSE,158,0.0,0.0,59,0.00,CLR,,0.00,WeatherDisplay:10.37,2013-03-05 03:57:00,
2013-03-04 23:02:00,43.6,30.6,30.06,SSE,158,0.0,0.0,60,0.00,CLR,,0.00,WeatherDisplay:10.37,2013-03-05 04:02:00,
2013-03-04 23:07:00,43.6,30.6,30.06,SSE,158,0.0,0.0,60,0.00,CLR,,0.00,WeatherDisplay:10.37,2013-03-05 04:07:00,
2013-03-04 23:12:00,43.6,31.0,30.06,SSE,158,0.0,0.0,61,0.00,CLR,,0.00,WeatherDisplay:10.37,2013-03-05 04:12:00,
2013-03-04 23:17:00,43.8,31.2,30.06,SSE,158,0.0,0.0,61,0.00,CLR,,0.00,WeatherDisplay:10.37,2013-03-05 04:17:00,
2013-03-04 23:22:00,43.9,30.9,30.06,SSE,158,0.0,0.0,60,0.00,CLR,,0.00,WeatherDisplay:10.37,2013-03-05 04:22:00,
2013-03-04 23:27:00,43.7,30.7,30.06,SSE,158,0.0,0.0,60,0.00,CLR,,0.00,WeatherDisplay:10.37,2013-03-05 04:27:00,
2013-03-04 23:32:00,43.5,30.5,30.06,SSE,158,0.0,0.0,60,0.00,CLR,,0.00,WeatherDisplay:10.37,2013-03-05 04:32:00,
2013-03-04 23:37:00,43.5,30.5,30.06,SSE,158,0.0,0.0,60,0.00,CLR,,0.00,WeatherDisplay:10.37,2013-03-05 04:37:00,
2013-03-04 23:42:00,43.5,30.9,30.06,SSE,158,0.0,0.0,61,0.00,CLR,,0.00,WeatherDisplay:10.37,2013-03-05 04:42:00,
2013-03-04 23:47:00,43.5,30.9,30.06,SSE,158,0.0,0.0,61,0.00,CLR,,0.00,WeatherDisplay:10.37,2013-03-05 04:47:00,
2013-03-04 23:52:00,43.7,31.5,30.06,SSE,158,0.0,0.0,62,0.00,CLR,,0.00,WeatherDisplay:10.37,2013-03-05 04:52:00,
2013-03-04 23:57:00,43.7,31.1,30.06,SSE,158,0.0,0.0,61,0.00,CLR,,0.00,WeatherDisplay:10.37,2013-03-05 04:57:00,